Time;durP1;ratioP1;P1;durP2;ratioP2;P2;SDS_P1;SDS_P2;PMS_P1;PMS_P2;Temp;Humidity;BMP_temperature;BMP_pressure;BME280_temperature;BME280_humidity;BME280_pressure;Samples;Min_cycle;Max_cycle;Signal;HPM_P1;HPM_P2
2023/06/01 00:02:22;;;;;;;5.65;1.95;;;;;;;;;;4923553;23;20066;-78
2023/06/01 00:04:48;;;;;;;6.90;2.00;;;;;;;;;;4955832;28;20126;-76
2023/06/01 00:07:13;;;;;;;7.75;2.45;;;;;;;;;;4940207;28;20031;-76
2023/06/01 00:09:39;;;;;;;7.97;2.28;;;;;;;;;;4956107;28;20443;-77
2023/06/01 00:12:05;;;;;;;4.35;2.00;;;;;;;;;;4955628;28;20035;-78
2023/06/01 00:14:30;;;;;;;4.97;2.13;;;;;;;;;;4966535;28;20054;-77
2023/06/01 00:16:56;;;;;;;9.15;2.05;;;;;;;;;;4955641;28;20092;-78
2023/06/01 00:19:22;;;;;;;4.53;1.70;;;;;;;;;;4973074;28;20034;-77
2023/06/01 00:21:48;;;;;;;5.22;2.17;;;;;;;;;;4955813;28;20070;-77
2023/06/01 00:24:13;;;;;;;4.80;1.67;;;;;;;;;;4972855;28;20073;-77
2023/06/01 00:26:39;;;;;;;4.80;2.08;;;;;;;;;;4971720;28;20031;-77
2023/06/01 00:29:05;;;;;;;3.45;1.55;;;;;;;;;;4971570;28;20373;-77
2023/06/01 00:31:30;;;;;;;3.60;1.60;;;;;;;;;;4952147;28;20456;-76
2023/06/01 00:33:56;;;;;;;5.00;1.88;;;;;;;;;;4955674;28;20058;-78
2023/06/01 00:36:22;;;;;;;4.53;1.77;;;;;;;;;;4971762;28;20113;-78
2023/06/01 00:38:47;;;;;;;8.77;1.95;;;;;;;;;;4955774;28;20035;-76
2023/06/01 00:41:13;;;;;;;3.80;1.67;;;;;;;;;;4955465;28;20189;-77
2023/06/01 00:43:39;;;;;;;7.82;2.17;;;;;;;;;;4971529;28;20043;-77
2023/06/01 00:46:05;;;;;;;6.38;1.95;;;;;;;;;;4972813;28;20444;-78
2023/06/01 00:48:31;;;;;;;5.30;1.85;;;;;;;;;;4950804;28;20098;-78
2023/06/01 00:50:59;;;;;;;8.27;1.70;;;;;;;;;;4972633;28;20162;-77
2023/06/01 00:53:25;;;;;;;4.38;2.00;;;;;;;;;;4971483;28;20109;-77
2023/06/01 00:55:51;;;;;;;4.35;1.75;;;;;;;;;;4971652;28;20038;-77
2023/06/01 00:58:17;;;;;;;4.57;2.13;;;;;;;;;;4971331;28;20038;-77
2023/06/01 01:00:42;;;;;;;6.57;1.90;;;;;;;;;;4955414;28;20045;-77
2023/06/01 01:03:09;;;;;;;3.55;1.70;;;;;;;;;;4980700;28;20113;-77
2023/06/01 01:05:35;;;;;;;4.20;1.80;;;;;;;;;;4973493;28;20038;-77
2023/06/01 01:08:02;;;;;;;6.20;1.67;;;;;;;;;;4958549;28;20026;-77
2023/06/01 01:10:40;;;;;;;6.63;2.35;;;;;;;;;;4974521;28;20026;-78
2023/06/01 01:13:12;;;;;;;3.92;1.77;;;;;;;;;;4974502;28;20045;-76
2023/06/01 01:15:40;;;;;;;6.95;2.15;;;;;;;;;;4975137;28;20115;-78
2023/06/01 01:18:08;;;;;;;7.40;2.08;;;;;;;;;;4974472;28;20134;-78
2023/06/01 01:20:37;;;;;;;4.53;1.85;;;;;;;;;;4958176;28;20042;-77
2023/06/01 01:23:16;;;;;;;7.72;1.83;;;;;;;;;;4961062;28;20031;-78
2023/06/01 01:25:48;;;;;;;6.57;1.92;;;;;;;;;;4944641;28;20499;-76
2023/06/01 01:28:30;;;;;;;5.35;1.95;;;;;;;;;;4962037;28;20027;-76
2023/06/01 01:30:58;;;;;;;7.13;1.90;;;;;;;;;;4977856;28;20062;-78
2023/06/01 01:33:24;;;;;;;5.43;2.03;;;;;;;;;;4977925;28;20026;-76
2023/06/01 01:35:51;;;;;;;5.03;1.88;;;;;;;;;;4961808;28;20326;-75
2023/06/01 01:38:16;;;;;;;4.93;1.80;;;;;;;;;;4977808;28;20062;-78
2023/06/01 01:40:42;;;;;;;7.75;2.03;;;;;;;;;;4973225;28;20455;-76
2023/06/01 01:43:08;;;;;;;4.45;2.13;;;;;;;;;;4977727;28;20383;-77
2023/06/01 01:45:34;;;;;;;7.65;2.20;;;;;;;;;;4977685;28;20410;-77
2023/06/01 01:48:08;;;;;;;6.38;2.13;;;;;;;;;;4961637;28;20439;-77
2023/06/01 01:50:37;;;;;;;5.22;2.42;;;;;;;;;;4961523;28;20034;-77
2023/06/01 01:53:04;;;;;;;13.07;2.25;;;;;;;;;;4961874;28;20034;-77
2023/06/01 01:55:30;;;;;;;6.00;1.92;;;;;;;;;;4977506;28;20041;-77
2023/06/01 01:57:58;;;;;;;4.47;2.03;;;;;;;;;;4962351;28;20521;-77
2023/06/01 02:00:24;;;;;;;13.35;2.60;;;;;;;;;;4977531;28;20037;-77
2023/06/01 02:02:49;;;;;;;4.47;1.83;;;;;;;;;;4977269;28;20023;-78
2023/06/01 02:05:16;;;;;;;7.28;1.95;;;;;;;;;;4977382;28;20037;-77
2023/06/01 02:07:41;;;;;;;6.10;2.25;;;;;;;;;;4994708;28;20022;-77
2023/06/01 02:10:10;;;;;;;8.68;2.70;;;;;;;;;;4976893;28;20018;-77
2023/06/01 02:12:35;;;;;;;4.25;1.40;;;;;;;;;;4960960;28;20037;-77
2023/06/01 02:15:01;;;;;;;4.97;2.03;;;;;;;;;;4990328;28;20022;-76
2023/06/01 02:17:27;;;;;;;4.82;1.90;;;;;;;;;;4960948;28;20026;-76
2023/06/01 02:19:52;;;;;;;6.38;2.00;;;;;;;;;;4977392;28;20018;-77
2023/06/01 02:22:18;;;;;;;5.72;2.00;;;;;;;;;;4944905;28;20033;-77
2023/06/01 02:24:45;;;;;;;8.82;2.28;;;;;;;;;;4944889;28;20443;-77
2023/06/01 02:27:10;;;;;;;9.95;2.88;;;;;;;;;;4945155;28;20109;-76
2023/06/01 02:29:36;;;;;;;7.18;2.03;;;;;;;;;;4977158;28;20070;-77
2023/06/01 02:32:02;;;;;;;5.93;2.63;;;;;;;;;;4961004;28;20463;-77
2023/06/01 02:34:27;;;;;;;4.35;1.83;;;;;;;;;;4976978;28;20042;-77
2023/06/01 02:36:55;;;;;;;6.00;2.20;;;;;;;;;;4975846;28;20372;-76
2023/06/01 02:39:22;;;;;;;7.15;2.15;;;;;;;;;;4976735;28;20481;-78
2023/06/01 02:41:47;;;;;;;6.25;2.38;;;;;;;;;;4944748;28;20031;-77
2023/06/01 02:44:13;;;;;;;6.13;2.50;;;;;;;;;;4993956;28;20089;-77
2023/06/01 02:46:38;;;;;;;7.05;2.45;;;;;;;;;;4993951;28;20026;-77
2023/06/01 02:49:04;;;;;;;8.68;2.22;;;;;;;;;;4993910;28;20078;-77
2023/06/01 02:51:31;;;;;;;12.40;2.60;;;;;;;;;;4975098;28;20114;-77
2023/06/01 02:54:10;;;;;;;9.90;2.20;;;;;;;;;;4976363;28;20034;-77
2023/06/01 02:56:36;;;;;;;7.13;2.40;;;;;;;;;;4960441;28;20053;-77
2023/06/01 02:59:21;;;;;;;7.75;3.10;;;;;;;;;;4978754;28;20057;-77
2023/06/01 03:01:53;;;;;;;7.50;2.00;;;;;;;;;;4945384;28;20041;-77
2023/06/01 03:04:20;;;;;;;13.93;2.95;;;;;;;;;;4960048;28;20419;-77
2023/06/01 03:06:46;;;;;;;5.55;2.53;;;;;;;;;;4959560;28;20569;-77
2023/06/01 03:09:15;;;;;;;5.20;1.80;;;;;;;;;;4975468;28;20607;-79
2023/06/01 03:12:01;;;;;;;7.18;1.90;;;;;;;;;;4975623;28;20499;-75
2023/06/01 03:14:27;;;;;;;4.97;1.98;;;;;;;;;;4960019;28;20034;-77
2023/06/01 03:16:53;;;;;;;4.28;1.90;;;;;;;;;;4976048;28;20026;-77
2023/06/01 03:19:21;;;;;;;7.53;2.25;;;;;;;;;;4960227;28;20526;-77
2023/06/01 03:21:50;;;;;;;5.75;2.45;;;;;;;;;;4975837;28;20488;-77
2023/06/01 03:24:19;;;;;;;5.15;2.22;;;;;;;;;;4978361;28;20037;-77
2023/06/01 03:26:45;;;;;;;5.30;2.35;;;;;;;;;;4960074;28;20034;-77
2023/06/01 03:29:11;;;;;;;4.53;2.10;;;;;;;;;;4975929;28;20057;-77
2023/06/01 03:31:37;;;;;;;11.60;3.22;;;;;;;;;;4959707;28;20089;-77
2023/06/01 03:34:02;;;;;;;10.18;2.95;;;;;;;;;;4992777;28;20030;-77
2023/06/01 03:36:28;;;;;;;5.28;2.30;;;;;;;;;;4959739;28;20026;-77
2023/06/01 03:38:54;;;;;;;8.73;4.38;;;;;;;;;;4975818;28;20034;-78
2023/06/01 03:41:22;;;;;;;10.23;3.07;;;;;;;;;;4978203;28;20539;-77
2023/06/01 03:43:48;;;;;;;5.25;2.45;;;;;;;;;;4959541;28;20034;-77
2023/06/01 03:46:14;;;;;;;11.93;3.10;;;;;;;;;;4943631;28;20487;-77
2023/06/01 03:48:40;;;;;;;9.40;2.90;;;;;;;;;;4959512;28;20363;-76
2023/06/01 03:51:06;;;;;;;6.72;2.40;;;;;;;;;;4959504;28;20030;-77
2023/06/01 03:53:33;;;;;;;6.60;2.67;;;;;;;;;;4975431;28;20030;-77
2023/06/01 03:55:58;;;;;;;9.27;2.80;;;;;;;;;;4975384;28;20101;-79
2023/06/01 03:58:30;;;;;;;6.00;2.42;;;;;;;;;;4978139;28;20062;-78
2023/06/01 04:00:56;;;;;;;7.55;2.90;;;;;;;;;;4975139;28;20049;-77
2023/06/01 04:03:23;;;;;;;8.05;3.03;;;;;;;;;;4992356;28;20471;-78
2023/06/01 04:05:58;;;;;;;6.38;2.55;;;;;;;;;;4975019;28;20034;-78
2023/06/01 04:08:27;;;;;;;9.43;2.58;;;;;;;;;;4992467;28;20153;-77
2023/06/01 04:10:53;;;;;;;;;;;;;;;;;;4959322;28;20033;-78
2023/06/01 04:13:18;;;;;;;9.38;2.47;;;;;;;;;;4958573;28;19909;-78
2023/06/01 04:15:45;;;;;;;7.90;2.90;;;;;;;;;;4971497;28;20030;-76
2023/06/01 04:18:11;;;;;;;8.27;2.63;;;;;;;;;;4958872;28;20068;-77
2023/06/01 04:20:54;;;;;;;7.75;2.30;;;;;;;;;;4961622;28;20041;-78
2023/06/01 04:23:21;;;;;;;8.38;2.58;;;;;;;;;;4959400;28;20027;-77
2023/06/01 04:25:50;;;;;;;9.02;3.28;;;;;;;;;;4975074;28;20042;-77
2023/06/01 04:28:17;;;;;;;16.92;4.55;;;;;;;;;;4975272;28;20026;-78
2023/06/01 04:30:47;;;;;;;10.15;4.00;;;;;;;;;;4942958;28;20084;-78
2023/06/01 04:33:13;;;;;;;9.90;3.13;;;;;;;;;;4945657;28;20035;-75
2023/06/01 04:35:39;;;;;;;16.75;4.68;;;;;;;;;;4955913;28;20440;-76
2023/06/01 04:38:06;;;;;;;7.57;3.72;;;;;;;;;;4939959;28;20308;-77
2023/06/01 04:40:31;;;;;;;8.82;4.03;;;;;;;;;;4939884;28;20447;-76
2023/06/01 04:42:57;;;;;;;10.45;4.10;;;;;;;;;;4955834;28;20035;-75
2023/06/01 04:45:25;;;;;;;12.02;3.70;;;;;;;;;;4957120;28;20031;-76
2023/06/01 04:47:51;;;;;;;12.82;3.60;;;;;;;;;;4959122;28;20571;-76
2023/06/01 04:50:28;;;;;;;10.15;3.92;;;;;;;;;;4957159;28;20034;-76
2023/06/01 04:52:54;;;;;;;13.45;4.25;;;;;;;;;;4975521;28;20026;-76
2023/06/01 04:55:21;;;;;;;8.35;3.65;;;;;;;;;;4960038;28;20030;-76
2023/06/01 04:57:49;;;;;;;9.95;3.75;;;;;;;;;;4959783;28;20089;-76
2023/06/01 05:00:17;;;;;;;12.38;4.07;;;;;;;;;;4961500;28;20472;-76
2023/06/01 05:02:44;;;;;;;11.00;4.25;;;;;;;;;;4963012;28;20117;-77
2023/06/01 05:05:12;;;;;;;10.10;4.00;;;;;;;;;;4963248;28;20027;-76
2023/06/01 05:07:48;;;;;;;10.25;3.92;;;;;;;;;;4963070;28;20121;-76
2023/06/01 05:10:14;;;;;;;11.35;4.30;;;;;;;;;;4961189;28;20035;-76
2023/06/01 05:12:48;;;;;;;14.57;4.00;;;;;;;;;;4962507;28;20563;-78
2023/06/01 05:15:16;;;;;;;11.70;3.50;;;;;;;;;;4944667;28;20026;-76
2023/06/01 05:17:43;;;;;;;14.55;4.40;;;;;;;;;;4943634;28;20077;-78
2023/06/01 05:20:12;;;;;;;13.10;4.75;;;;;;;;;;4943814;28;20035;-76
2023/06/01 05:22:39;;;;;;;10.00;4.80;;;;;;;;;;4943013;28;20030;-76
2023/06/01 05:25:08;;;;;;;14.70;4.60;;;;;;;;;;4958380;28;20029;-77
2023/06/01 05:27:33;;;;;;;9.90;4.57;;;;;;;;;;4962962;28;20042;-76
2023/06/01 05:30:00;;;;;;;13.48;4.38;;;;;;;;;;4962947;28;20022;-78
2023/06/01 05:32:26;;;;;;;10.30;4.88;;;;;;;;;;4963180;28;20105;-75
2023/06/01 05:34:54;;;;;;;10.63;4.53;;;;;;;;;;4979357;28;20387;-76
2023/06/01 05:37:20;;;;;;;14.48;5.32;;;;;;;;;;4962796;28;20038;-77
2023/06/01 05:39:47;;;;;;;9.40;4.25;;;;;;;;;;4962635;28;20042;-76
2023/06/01 05:42:14;;;;;;;10.15;4.53;;;;;;;;;;4964693;28;20038;-77
2023/06/01 05:44:40;;;;;;;12.07;4.60;;;;;;;;;;4961884;28;20053;-77
2023/06/01 05:47:06;;;;;;;12.55;4.30;;;;;;;;;;4961916;28;20373;-76
2023/06/01 05:49:33;;;;;;;14.13;4.45;;;;;;;;;;4961823;28;20427;-77
2023/06/01 05:52:00;;;;;;;10.82;4.32;;;;;;;;;;4961630;28;20436;-76
2023/06/01 05:54:27;;;;;;;12.20;4.60;;;;;;;;;;4946346;28;20072;-77
2023/06/01 05:56:53;;;;;;;15.45;4.70;;;;;;;;;;4978710;28;20031;-77
2023/06/01 05:59:19;;;;;;;16.85;5.07;;;;;;;;;;4961125;28;20439;-77
2023/06/01 06:01:45;;;;;;;12.98;4.90;;;;;;;;;;4963758;28;20053;-76
2023/06/01 06:04:11;;;;;;;19.60;5.03;;;;;;;;;;4996287;28;20069;-78
2023/06/01 06:06:37;;;;;;;12.57;4.80;;;;;;;;;;4965152;28;20102;-78
2023/06/01 06:09:04;;;;;;;13.05;5.28;;;;;;;;;;4997454;28;20022;-76
2023/06/01 06:11:30;;;;;;;12.45;4.60;;;;;;;;;;4980625;28;20031;-78
2023/06/01 06:13:57;;;;;;;18.27;5.55;;;;;;;;;;4965247;28;20044;-76
2023/06/01 06:16:22;;;;;;;12.00;4.97;;;;;;;;;;4980096;28;20026;-76
2023/06/01 06:18:48;;;;;;;14.43;5.30;;;;;;;;;;4994191;28;20026;-76
2023/06/01 06:21:14;;;;;;;13.88;5.10;;;;;;;;;;4947725;28;20361;-78
2023/06/01 06:23:40;;;;;;;14.25;5.30;;;;;;;;;;4988033;23;20046;-76
2023/06/01 06:26:13;;;;;;;16.67;5.38;;;;;;;;;;4977151;28;20061;-77
2023/06/01 06:28:42;;;;;;;8.82;4.40;;;;;;;;;;4977178;28;20064;-78
2023/06/01 06:31:08;;;;;;;12.35;4.93;;;;;;;;;;4960505;28;20471;-78
2023/06/01 06:33:35;;;;;;;10.30;5.03;;;;;;;;;;4992780;28;20042;-77
2023/06/01 06:36:00;;;;;;;12.65;5.10;;;;;;;;;;4992638;28;20038;-77
2023/06/01 06:38:26;;;;;;;10.57;5.10;;;;;;;;;;4980898;28;20440;-77
2023/06/01 06:40:53;;;;;;;14.15;6.15;;;;;;;;;;4956993;28;20027;-77
2023/06/01 06:43:18;;;;;;;11.10;5.13;;;;;;;;;;4957137;28;20041;-76
2023/06/01 06:45:44;;;;;;;17.92;5.30;;;;;;;;;;4974243;28;20030;-78
2023/06/01 06:48:10;;;;;;;9.43;5.05;;;;;;;;;;4957988;28;20030;-77
2023/06/01 06:50:36;;;;;;;13.57;5.78;;;;;;;;;;4974136;28;20027;-77
2023/06/01 06:53:03;;;;;;;14.20;6.30;;;;;;;;;;4979701;28;20129;-76
2023/06/01 06:55:29;;;;;;;11.75;6.30;;;;;;;;;;4966736;28;20031;-77
2023/06/01 06:57:55;;;;;;;18.10;6.78;;;;;;;;;;4993618;28;20061;-77
2023/06/01 07:00:22;;;;;;;12.75;5.60;;;;;;;;;;4977856;28;20027;-78
2023/06/01 07:02:48;;;;;;;13.15;6.50;;;;;;;;;;4946852;28;20042;-77
2023/06/01 07:05:20;;;;;;;15.73;6.72;;;;;;;;;;4946320;28;20031;-77
2023/06/01 07:07:46;;;;;;;13.30;6.40;;;;;;;;;;4977101;28;20072;-76
2023/06/01 07:10:12;;;;;;;13.45;6.60;;;;;;;;;;4977427;28;20088;-77
2023/06/01 07:12:38;;;;;;;16.75;7.20;;;;;;;;;;4975352;28;20483;-76
2023/06/01 07:15:04;;;;;;;15.57;6.35;;;;;;;;;;4972606;28;20039;-77
2023/06/01 07:17:30;;;;;;;14.75;6.47;;;;;;;;;;4958280;28;20046;-77
2023/06/01 07:19:58;;;;;;;15.07;7.50;;;;;;;;;;4957603;28;20563;-78
2023/06/01 07:22:23;;;;;;;15.75;6.60;;;;;;;;;;4941681;28;20149;-78
2023/06/01 07:24:49;;;;;;;14.32;7.60;;;;;;;;;;4977093;28;20054;-78
2023/06/01 07:27:15;;;;;;;15.27;7.85;;;;;;;;;;4959971;28;20535;-78
2023/06/01 07:29:41;;;;;;;18.10;6.82;;;;;;;;;;4985205;28;20372;-77
2023/06/01 07:32:06;;;;;;;13.82;7.07;;;;;;;;;;5000040;28;20029;-78
2023/06/01 07:34:35;;;;;;;19.80;8.30;;;;;;;;;;4974742;28;20031;-80
2023/06/01 07:37:01;;;;;;;20.20;9.07;;;;;;;;;;4968438;28;20030;-81
2023/06/01 07:39:27;;;;;;;13.45;6.90;;;;;;;;;;4971184;28;20037;-81
2023/06/01 07:41:53;;;;;;;22.02;7.72;;;;;;;;;;4982510;28;20475;-81
2023/06/01 07:44:20;;;;;;;11.13;7.32;;;;;;;;;;5003165;28;20061;-81
2023/06/01 07:46:46;;;;;;;16.40;8.27;;;;;;;;;;4963007;28;20040;-82
2023/06/01 07:49:13;;;;;;;16.33;9.05;;;;;;;;;;4991056;28;20120;-82
2023/06/01 07:51:43;;;;;;;15.17;7.93;;;;;;;;;;4982538;28;20174;-81
2023/06/01 07:54:09;;;;;;;15.43;7.40;;;;;;;;;;4983855;28;20042;-81
2023/06/01 07:56:35;;;;;;;12.65;6.85;;;;;;;;;;5007277;28;20548;-81
2023/06/01 07:59:01;;;;;;;12.05;6.78;;;;;;;;;;4976914;28;20121;-82
2023/06/01 08:01:27;;;;;;;19.02;7.35;;;;;;;;;;4989495;28;20032;-81
2023/06/01 08:03:52;;;;;;;17.02;8.13;;;;;;;;;;4983585;28;20061;-82
2023/06/01 08:06:22;;;;;;;14.10;6.85;;;;;;;;;;4979732;28;20031;-81
2023/06/01 08:08:49;;;;;;;11.93;6.80;;;;;;;;;;4966409;28;20034;-82
2023/06/01 08:11:15;;;;;;;19.95;7.63;;;;;;;;;;4979758;28;20566;-81
2023/06/01 08:13:41;;;;;;;16.00;7.28;;;;;;;;;;4987128;28;20073;-83
2023/06/01 08:16:07;;;;;;;15.27;6.40;;;;;;;;;;4984978;28;20426;-82
2023/06/01 08:18:33;;;;;;;15.00;7.28;;;;;;;;;;4999100;28;20282;-82
2023/06/01 08:21:00;;;;;;;15.18;7.78;;;;;;;;;;4977060;28;20365;-82
2023/06/01 08:23:26;;;;;;;11.68;6.38;;;;;;;;;;4989010;28;20124;-81
2023/06/01 08:25:52;;;;;;;13.82;7.05;;;;;;;;;;5001128;28;20040;-81
2023/06/01 08:28:18;;;;;;;14.70;7.32;;;;;;;;;;4997560;28;20026;-81
2023/06/01 08:30:43;;;;;;;16.05;7.43;;;;;;;;;;4962752;28;20027;-80
2023/06/01 08:33:12;;;;;;;12.48;6.95;;;;;;;;;;4992165;28;20026;-81
2023/06/01 08:35:37;;;;;;;;;;;;;;;;;;5003829;28;20094;-81
2023/06/01 08:38:03;;;;;;;12.60;6.82;;;;;;;;;;4994181;28;19983;-81
2023/06/01 08:40:32;;;;;;;15.50;7.68;;;;;;;;;;5000024;28;20047;-80
2023/06/01 08:43:16;;;;;;;12.35;6.80;;;;;;;;;;5020547;28;20028;-79
2023/06/01 08:45:43;;;;;;;14.13;6.88;;;;;;;;;;4997866;28;20031;-80
2023/06/01 08:48:14;;;;;;;16.95;8.15;;;;;;;;;;5000440;28;20034;-80
2023/06/01 08:50:40;;;;;;;13.75;6.95;;;;;;;;;;4997559;28;20096;-81
2023/06/01 08:53:06;;;;;;;14.05;7.50;;;;;;;;;;4977481;28;20422;-82
2023/06/01 08:55:32;;;;;;;14.27;8.05;;;;;;;;;;4982635;28;20093;-82
2023/06/01 08:57:58;;;;;;;19.75;8.85;;;;;;;;;;5004379;28;20038;-82
2023/06/01 09:00:24;;;;;;;19.33;8.77;;;;;;;;;;4973233;28;20033;-81
2023/06/01 09:02:50;;;;;;;17.02;7.95;;;;;;;;;;4997044;28;20406;-82
2023/06/01 09:05:17;;;;;;;16.67;9.63;;;;;;;;;;5009945;28;20169;-82
2023/06/01 09:07:42;;;;;;;19.08;10.23;;;;;;;;;;5001752;28;20025;-82
2023/06/01 09:10:08;;;;;;;18.88;10.60;;;;;;;;;;5003957;28;20110;-81
2023/06/01 09:12:34;;;;;;;22.55;11.57;;;;;;;;;;4960170;28;20061;-81
2023/06/01 09:15:08;;;;;;;21.85;12.20;;;;;;;;;;4979974;28;20042;-82
2023/06/01 09:17:34;;;;;;;25.48;13.60;;;;;;;;;;4991259;28;20034;-82
2023/06/01 09:20:00;;;;;;;17.25;10.75;;;;;;;;;;4977766;28;20089;-81
2023/06/01 09:22:38;;;;;;;20.58;10.80;;;;;;;;;;4977600;28;20053;-82
2023/06/01 09:25:04;;;;;;;24.23;12.13;;;;;;;;;;4976264;28;20030;-81
2023/06/01 09:27:29;;;;;;;27.48;12.48;;;;;;;;;;4983365;28;20018;-84
2023/06/01 09:29:56;;;;;;;23.52;13.52;;;;;;;;;;5005530;28;20470;-82
2023/06/01 09:32:22;;;;;;;23.45;12.70;;;;;;;;;;4989999;28;20545;-82
2023/06/01 09:34:47;;;;;;;19.20;11.57;;;;;;;;;;4998422;28;20049;-81
2023/06/01 09:37:13;;;;;;;16.40;10.25;;;;;;;;;;4961176;28;20356;-82
2023/06/01 09:39:39;;;;;;;19.95;11.27;;;;;;;;;;4980028;28;20072;-82
2023/06/01 09:42:06;;;;;;;27.83;13.45;;;;;;;;;;4971774;28;20034;-81
2023/06/01 09:44:33;;;;;;;17.88;11.00;;;;;;;;;;4982670;28;20039;-82
2023/06/01 09:47:01;;;;;;;23.23;11.70;;;;;;;;;;4978059;28;20026;-82
2023/06/01 09:49:38;;;;;;;18.40;10.23;;;;;;;;;;4976698;28;20036;-81
2023/06/01 09:52:04;;;;;;;18.07;9.63;;;;;;;;;;4978399;28;20030;-81
2023/06/01 09:54:31;;;;;;;18.15;9.70;;;;;;;;;;4947650;28;20034;-81
2023/06/01 09:56:57;;;;;;;15.75;9.50;;;;;;;;;;4990061;28;20030;-82
2023/06/01 09:59:23;;;;;;;21.52;12.15;;;;;;;;;;4982003;28;20108;-81
2023/06/01 10:01:51;;;;;;;57.75;37.80;;;;;;;;;;4955425;28;20026;-81
2023/06/01 10:04:20;;;;;;;40.03;25.83;;;;;;;;;;4987213;28;20121;-81
2023/06/01 10:06:46;;;;;;;40.50;26.48;;;;;;;;;;4931489;28;20034;-81
2023/06/01 10:09:15;;;;;;;28.55;18.55;;;;;;;;;;4975318;28;20113;-82
2023/06/01 10:11:44;;;;;;;22.10;14.00;;;;;;;;;;4982321;28;20026;-82
2023/06/01 10:14:10;;;;;;;29.20;17.83;;;;;;;;;;4980929;28;20039;-82
2023/06/01 10:16:36;;;;;;;23.05;14.85;;;;;;;;;;5002727;28;20033;-82
2023/06/01 10:19:01;;;;;;;22.17;13.45;;;;;;;;;;5012878;28;20060;-80
2023/06/01 10:21:28;;;;;;;21.95;13.05;;;;;;;;;;4981393;28;20080;-82
2023/06/01 10:23:54;;;;;;;18.63;7.63;;;;;;;;;;4960943;28;20038;-80
2023/06/01 10:26:20;;;;;;;18.58;9.10;;;;;;;;;;4989110;28;20268;-81
2023/06/01 10:28:47;;;;;;;18.73;11.20;;;;;;;;;;4998161;28;20110;-81
2023/06/01 10:31:32;;;;;;;19.80;10.73;;;;;;;;;;4972416;28;20129;-81
2023/06/01 10:33:57;;;;;;;15.27;8.60;;;;;;;;;;4987312;28;20057;-81
2023/06/01 10:36:23;;;;;;;19.83;9.13;;;;;;;;;;5010699;28;20510;-81
2023/06/01 10:38:49;;;;;;;16.88;8.07;;;;;;;;;;5015358;28;20034;-81
2023/06/01 10:41:25;;;;;;;19.90;9.23;;;;;;;;;;4984902;28;20394;-79
2023/06/01 10:43:51;;;;;;;23.95;8.95;;;;;;;;;;4991362;28;20045;-81
2023/06/01 10:46:42;;;;;;;23.98;9.50;;;;;;;;;;4974657;28;20030;-83
2023/06/01 10:56:28;;;;;;;15.48;8.02;;;;;;;;;;4961217;28;20121;-81
2023/06/01 10:59:19;;;;;;;28.52;9.73;;;;;;;;;;4986737;28;20023;-82
2023/06/01 11:01:48;;;;;;;39.10;9.55;;;;;;;;;;4974226;28;20030;-82
2023/06/01 11:04:36;;;;;;;18.10;8.90;;;;;;;;;;4975220;28;20117;-82
2023/06/01 11:07:21;;;;;;;17.40;9.15;;;;;;;;;;4979967;28;20068;-82
2023/06/01 11:09:53;;;;;;;13.90;7.95;;;;;;;;;;4971958;28;20390;-82
2023/06/01 11:12:55;;;;;;;13.02;8.20;;;;;;;;;;5002942;28;20390;-82
2023/06/01 11:19:27;;;;;;;21.10;7.45;;;;;;;;;;4977344;28;20030;-84
2023/06/01 11:22:07;;;;;;;29.38;8.73;;;;;;;;;;4981793;28;20422;-82
2023/06/01 11:24:37;;;;;;;26.13;9.25;;;;;;;;;;4990282;28;20030;-79
2023/06/01 11:27:24;;;;;;;20.95;7.78;;;;;;;;;;4986256;28;20037;-81
2023/06/01 11:30:48;;;;;;;18.48;8.10;;;;;;;;;;5010144;28;20034;-81
2023/06/01 11:33:33;;;;;;;14.25;9.02;;;;;;;;;;4994887;28;20030;-82
2023/06/01 11:36:04;;;;;;;18.15;8.68;;;;;;;;;;5009626;28;20058;-81
2023/06/01 11:38:45;;;;;;;16.70;8.48;;;;;;;;;;4997491;28;20441;-82
2023/06/01 11:41:23;;;;;;;16.88;10.45;;;;;;;;;;5000534;28;20017;-83
2023/06/01 11:44:30;;;;;;;23.63;9.43;;;;;;;;;;5020385;28;20088;-82
2023/06/01 11:47:39;;;;;;;17.50;9.00;;;;;;;;;;4990940;28;20097;-81
2023/06/01 11:50:06;;;;;;;18.65;10.95;;;;;;;;;;4989255;28;20058;-81
2023/06/01 11:52:32;;;;;;;16.52;9.23;;;;;;;;;;4989308;28;20022;-81
2023/06/01 11:55:00;;;;;;;;;;;;;;;;;;5003666;28;20061;-81
2023/06/01 11:57:32;;;;;;;15.80;10.90;;;;;;;;;;4986646;28;19933;-82
2023/06/01 12:03:27;;;;;;;27.55;20.02;;;;;;;;;;5027201;28;20206;-81
2023/06/01 12:06:27;;;;;;;60.40;41.58;;;;;;;;;;5012094;28;20038;-81
2023/06/01 12:08:55;;;;;;;40.47;30.17;;;;;;;;;;5014829;28;20064;-81
2023/06/01 12:11:26;;;;;;;25.35;12.50;;;;;;;;;;5002450;28;20036;-82
2023/06/01 12:13:52;;;;;;;20.10;12.05;;;;;;;;;;4989218;28;20030;-82
2023/06/01 12:16:18;;;;;;;18.90;14.15;;;;;;;;;;4988105;28;20109;-82
2023/06/01 12:18:44;;;;;;;20.45;15.07;;;;;;;;;;4982904;28;20041;-81
2023/06/01 12:21:12;;;;;;;22.83;11.52;;;;;;;;;;4976580;28;20034;-83
2023/06/01 12:23:39;;;;;;;18.23;10.20;;;;;;;;;;4992047;23;20053;-83
2023/06/01 12:26:04;;;;;;;16.33;11.02;;;;;;;;;;5001548;28;20019;-84
2023/06/01 12:28:46;;;;;;;17.05;10.02;;;;;;;;;;4988489;28;20030;-84
2023/06/01 12:31:13;;;;;;;25.13;18.35;;;;;;;;;;4962107;28;20052;-82
2023/06/01 12:33:39;;;;;;;26.20;16.92;;;;;;;;;;4982763;28;20040;-82
2023/06/01 12:36:06;;;;;;;17.88;12.32;;;;;;;;;;5001432;28;20176;-83
2023/06/01 12:38:49;;;;;;;17.38;12.95;;;;;;;;;;4988722;28;20030;-83
2023/06/01 12:41:15;;;;;;;23.58;12.60;;;;;;;;;;4977510;28;20030;-85
2023/06/01 12:43:44;;;;;;;24.42;9.02;;;;;;;;;;4998118;28;20041;-85
2023/06/01 12:46:18;;;;;;;17.67;8.85;;;;;;;;;;5000801;28;20035;-84
2023/06/01 12:48:47;;;;;;;15.55;9.25;;;;;;;;;;4991742;28;20025;-82
2023/06/01 12:51:13;;;;;;;14.98;10.55;;;;;;;;;;4980814;28;20034;-82
2023/06/01 12:53:39;;;;;;;13.95;7.95;;;;;;;;;;4987905;28;20118;-82
2023/06/01 12:56:05;;;;;;;15.80;8.32;;;;;;;;;;5002064;28;20030;-83
2023/06/01 12:58:30;;;;;;;17.85;11.32;;;;;;;;;;4997874;28;20026;-81
2023/06/01 13:00:56;;;;;;;20.20;9.27;;;;;;;;;;5008256;28;20034;-83
2023/06/01 13:03:22;;;;;;;14.50;9.63;;;;;;;;;;4964700;28;20037;-81
2023/06/01 13:05:49;;;;;;;15.00;7.88;;;;;;;;;;4988976;28;20022;-82
2023/06/01 13:08:19;;;;;;;14.75;7.63;;;;;;;;;;4951502;28;20045;-81
2023/06/01 13:11:16;;;;;;;11.05;6.28;;;;;;;;;;4922910;28;20043;-81
2023/06/01 13:13:42;;;;;;;11.15;6.40;;;;;;;;;;4943189;28;20044;-82
2023/06/01 13:16:08;;;;;;;12.85;8.88;;;;;;;;;;4945119;28;20035;-82
2023/06/01 13:18:33;;;;;;;16.77;9.82;;;;;;;;;;4950494;29;20576;-82
2023/06/01 13:20:59;;;;;;;13.88;8.30;;;;;;;;;;4967191;28;20479;-82
2023/06/01 13:23:25;;;;;;;15.07;7.82;;;;;;;;;;4959017;28;20039;-82
2023/06/01 13:25:50;;;;;;;16.95;7.93;;;;;;;;;;4964838;28;20039;-82
2023/06/01 13:28:16;;;;;;;14.23;9.63;;;;;;;;;;4964799;28;20094;-81
2023/06/01 13:30:42;;;;;;;14.38;8.88;;;;;;;;;;4941877;29;20035;-82
2023/06/01 13:33:11;;;;;;;13.25;7.93;;;;;;;;;;4944606;28;20042;-81
2023/06/01 13:35:38;;;;;;;13.63;8.43;;;;;;;;;;4948012;28;20476;-80
2023/06/01 13:38:04;;;;;;;15.45;8.88;;;;;;;;;;4953798;28;20107;-82
2023/06/01 13:40:29;;;;;;;32.13;11.30;;;;;;;;;;4941268;29;20126;-82
2023/06/01 13:42:56;;;;;;;51.75;11.52;;;;;;;;;;4954034;28;20097;-81
2023/06/01 13:45:21;;;;;;;49.28;11.50;;;;;;;;;;4968276;28;20081;-81
2023/06/01 13:47:48;;;;;;;46.78;12.30;;;;;;;;;;4959759;28;20034;-80
2023/06/01 13:50:14;;;;;;;43.20;10.75;;;;;;;;;;5002476;28;20031;-80
2023/06/01 13:52:40;;;;;;;46.45;11.18;;;;;;;;;;5008882;28;20033;-79
2023/06/01 13:55:06;;;;;;;27.90;9.73;;;;;;;;;;4997253;28;20037;-80
2023/06/01 13:57:32;;;;;;;19.88;7.72;;;;;;;;;;4990770;28;20435;-80
2023/06/01 13:59:58;;;;;;;20.25;8.32;;;;;;;;;;4986584;28;20064;-81
2023/06/01 14:02:23;;;;;;;24.40;7.07;;;;;;;;;;5000585;28;20038;-79
2023/06/01 14:04:49;;;;;;;34.72;9.10;;;;;;;;;;4980426;28;20065;-80
2023/06/01 14:07:14;;;;;;;14.63;6.53;;;;;;;;;;5010290;28;20033;-80
2023/06/01 14:09:40;;;;;;;22.60;8.30;;;;;;;;;;4975117;28;20131;-81
2023/06/01 14:12:06;;;;;;;22.25;7.50;;;;;;;;;;4989748;28;20026;-81
2023/06/01 14:14:32;;;;;;;15.55;5.85;;;;;;;;;;5008609;28;20103;-82
2023/06/01 14:16:57;;;;;;;12.27;5.57;;;;;;;;;;4980377;28;20034;-81
2023/06/01 14:19:25;;;;;;;9.75;5.18;;;;;;;;;;5010423;28;20034;-81
2023/06/01 14:21:50;;;;;;;17.92;6.82;;;;;;;;;;5005174;28;20026;-83
2023/06/01 14:24:16;;;;;;;14.65;7.47;;;;;;;;;;5004031;28;20419;-82
2023/06/01 14:26:41;;;;;;;19.33;10.60;;;;;;;;;;4995821;28;20112;-81
2023/06/01 14:29:08;;;;;;;20.88;8.30;;;;;;;;;;5001204;28;20026;-80
2023/06/01 14:31:33;;;;;;;13.77;7.65;;;;;;;;;;5009214;28;20022;-80
2023/06/01 14:33:59;;;;;;;11.13;6.55;;;;;;;;;;4988509;28;20446;-80
2023/06/01 14:36:24;;;;;;;10.43;6.57;;;;;;;;;;5002432;28;20708;-79
2023/06/01 14:38:50;;;;;;;14.57;6.15;;;;;;;;;;4976308;28;20030;-79
2023/06/01 14:41:16;;;;;;;12.55;5.90;;;;;;;;;;4978273;28;20030;-80
2023/06/01 14:43:41;;;;;;;15.80;7.25;;;;;;;;;;4970480;28;20069;-79
2023/06/01 14:46:07;;;;;;;13.32;5.68;;;;;;;;;;4979331;28;20092;-79
2023/06/01 14:48:33;;;;;;;12.70;6.05;;;;;;;;;;5006126;28;20125;-80
2023/06/01 14:50:58;;;;;;;14.57;5.75;;;;;;;;;;4996037;28;20109;-80
2023/06/01 14:53:24;;;;;;;10.07;4.55;;;;;;;;;;4989987;28;20030;-81
2023/06/01 14:55:49;;;;;;;9.80;5.13;;;;;;;;;;4986348;28;20064;-80